Time;durP1;ratioP1;P1;durP2;ratioP2;P2;SDS_P1;SDS_P2;PMS_P1;PMS_P2;Temp;Humidity;BMP_temperature;BMP_pressure;BME280_temperature;BME280_humidity;BME280_pressure;Samples;Min_cycle;Max_cycle;Signal;HPM_P1;HPM_P2
2022/03/11 00:01:51;;;;;;;10.73;9.03;;;3.80;96.40;;;;;;5049711;28;20206;-76
2022/03/11 00:04:20;;;;;;;10.40;9.30;;;3.80;96.70;;;;;;5046446;28;20745;-76
2022/03/11 00:06:47;;;;;;;10.30;8.83;;;3.70;96.70;;;;;;5050030;28;20203;-74
2022/03/11 00:09:13;;;;;;;10.10;9.10;;;3.60;97.30;;;;;;5023879;28;20485;-76
2022/03/11 00:11:40;;;;;;;11.07;8.80;;;3.50;97.40;;;;;;5044772;28;20429;-75
2022/03/11 00:14:07;;;;;;;9.77;8.57;;;3.40;98.20;;;;;;5048445;28;20470;-75
2022/03/11 00:16:34;;;;;;;10.83;9.67;;;3.40;98.00;;;;;;5018337;28;20446;-75
2022/03/11 00:19:01;;;;;;;10.57;9.47;;;3.30;98.20;;;;;;5028163;28;20491;-75
2022/03/11 00:21:29;;;;;;;12.27;9.70;;;3.20;98.10;;;;;;5042310;28;20195;-76
2022/03/11 00:23:56;;;;;;;9.97;8.97;;;3.10;98.40;;;;;;5032101;28;20234;-75
2022/03/11 00:26:24;;;;;;;10.63;9.53;;;3.20;98.20;;;;;;5021590;28;20200;-76
2022/03/11 00:28:51;;;;;;;9.97;8.97;;;3.20;98.40;;;;;;5027615;28;20457;-76
2022/03/11 00:31:18;;;;;;;9.70;8.70;;;3.10;98.40;;;;;;5030529;28;20457;-75
2022/03/11 00:33:44;;;;;;;10.20;9.10;;;2.90;98.60;;;;;;5026004;28;20459;-76
2022/03/11 00:36:11;;;;;;;11.13;9.40;;;2.90;98.70;;;;;;5024663;28;20461;-75
2022/03/11 00:38:39;;;;;;;10.20;9.13;;;2.90;99.00;;;;;;5028848;28;20461;-75
2022/03/11 00:41:06;;;;;;;10.80;9.60;;;2.80;98.90;;;;;;5024713;28;20970;-75
2022/03/11 00:43:33;;;;;;;11.70;10.23;;;2.70;99.30;;;;;;5050972;28;20446;-75
2022/03/11 00:46:00;;;;;;;10.60;9.53;;;2.70;99.40;;;;;;5024701;28;20503;-76
2022/03/11 00:48:27;;;;;;;12.13;10.20;;;2.60;99.50;;;;;;5033401;28;20835;-76
2022/03/11 00:50:53;;;;;;;11.10;10.00;;;2.60;99.80;;;;;;5045424;28;20437;-75
2022/03/11 00:53:21;;;;;;;12.23;10.00;;;2.60;99.90;;;;;;5043438;28;20817;-75
2022/03/11 00:55:49;;;;;;;11.07;9.90;;;2.80;99.90;;;;;;5027882;28;20438;-76
2022/03/11 00:58:15;;;;;;;10.77;9.77;;;2.90;99.90;;;;;;5025041;28;20447;-75
2022/03/11 01:00:43;;;;;;;11.63;10.20;;;2.90;99.90;;;;;;5050111;28;20457;-75
2022/03/11 01:03:10;;;;;;;12.13;10.87;;;2.90;99.90;;;;;;5025879;28;20461;-75
2022/03/11 01:05:37;;;;;;;10.77;9.77;;;2.90;99.90;;;;;;5033750;28;21031;-76
2022/03/11 01:08:04;;;;;;;11.13;10.03;;;2.70;99.90;;;;;;5043278;28;20220;-76
2022/03/11 01:10:31;;;;;;;11.57;10.37;;;2.60;99.90;;;;;;5044117;28;20422;-75
2022/03/11 01:12:59;;;;;;;10.83;9.30;;;2.50;99.90;;;;;;5046356;28;20439;-75
2022/03/11 01:15:26;;;;;;;10.97;9.87;;;2.50;99.90;;;;;;5044472;28;20534;-75
2022/03/11 01:17:53;;;;;;;10.87;9.77;;;2.50;99.90;;;;;;5047919;28;20497;-76
2022/03/11 01:20:20;;;;;;;10.97;9.87;;;2.50;99.90;;;;;;5044800;28;20532;-75
2022/03/11 01:22:46;;;;;;;11.33;10.10;;;2.40;99.90;;;;;;5033214;28;20476;-76
2022/03/11 01:25:15;;;;;;;11.40;9.90;;;2.40;99.90;;;;;;5044974;28;20476;-75
2022/03/11 01:27:42;;;;;;;11.07;9.90;;;2.30;99.90;;;;;;5043936;28;20488;-76
2022/03/11 01:30:13;;;;;;;13.97;10.23;;;2.30;99.90;;;;;;5027300;28;20460;-75
2022/03/11 01:32:41;;;;;;;13.47;10.53;;;2.20;99.90;;;;;;5030985;28;20550;-76
2022/03/11 01:35:09;;;;;;;12.77;9.93;;;2.20;99.90;;;;;;5045361;28;20482;-75
2022/03/11 01:37:37;;;;;;;12.63;10.07;;;2.20;99.90;;;;;;5024143;28;20867;-75
2022/03/11 01:40:04;;;;;;;12.93;11.17;;;2.20;99.90;;;;;;5046879;28;20811;-76
2022/03/11 01:42:34;;;;;;;12.83;11.10;;;2.20;99.90;;;;;;5025487;28;20840;-76
2022/03/11 01:45:01;;;;;;;11.97;10.77;;;2.30;99.90;;;;;;5047748;28;20453;-75
2022/03/11 01:47:29;;;;;;;11.77;10.07;;;2.30;99.90;;;;;;5039938;28;20434;-75
2022/03/11 01:49:57;;;;;;;11.90;10.70;;;2.20;99.90;;;;;;5048553;28;20806;-75
2022/03/11 01:52:23;;;;;;;13.40;10.90;;;2.30;99.90;;;;;;5043967;28;20798;-76
2022/03/11 01:54:51;;;;;;;13.97;12.13;;;2.20;99.90;;;;;;5026529;28;20474;-76
2022/03/11 01:57:18;;;;;;;14.17;10.83;;;2.10;99.90;;;;;;5045360;28;20941;-75
2022/03/11 01:59:45;;;;;;;13.23;11.03;;;2.00;99.90;;;;;;5044367;28;20435;-76
2022/03/11 02:02:12;;;;;;;11.93;10.53;;;2.10;99.90;;;;;;5047407;28;20942;-76
2022/03/11 02:04:40;;;;;;;12.90;11.53;;;2.10;99.90;;;;;;5045193;28;20461;-76
2022/03/11 02:07:07;;;;;;;14.10;11.70;;;2.10;99.90;;;;;;5047681;28;20447;-76
2022/03/11 02:09:36;;;;;;;15.73;12.80;;;2.10;99.90;;;;;;5025457;28;20465;-76
2022/03/11 02:12:04;;;;;;;13.83;12.10;;;2.20;99.90;;;;;;5042815;28;20444;-76
2022/03/11 02:14:31;;;;;;;16.57;13.67;;;2.20;99.90;;;;;;5044284;28;20506;-76
2022/03/11 02:16:57;;;;;;;16.23;12.70;;;2.30;99.90;;;;;;5027287;28;20459;-74
2022/03/11 02:19:24;;;;;;;14.73;12.73;;;2.30;99.90;;;;;;5037418;28;20934;-76
2022/03/11 02:21:57;;;;;;;13.40;12.00;;;2.40;99.90;;;;;;5028764;28;20460;-76
2022/03/11 02:24:27;;;;;;;16.40;13.27;;;2.30;99.90;;;;;;5045636;28;20451;-75
2022/03/11 02:26:54;;;;;;;17.83;13.43;;;2.40;99.90;;;;;;5027983;28;20471;-75
2022/03/11 02:29:21;;;;;;;15.63;13.93;;;2.40;99.90;;;;;;5049565;28;21011;-75
2022/03/11 02:31:48;;;;;;;18.47;15.47;;;2.50;99.90;;;;;;5045582;28;20441;-75
2022/03/11 02:34:16;;;;;;;20.43;15.27;;;2.50;99.90;;;;;;5044382;28;20458;-76
2022/03/11 02:36:43;;;;;;;18.23;15.07;;;2.50;99.90;;;;;;5037553;28;20436;-76
2022/03/11 02:39:11;;;;;;;19.57;14.73;;;2.40;99.90;;;;;;5022128;28;20454;-76
2022/03/11 02:41:42;;;;;;;15.83;14.03;;;2.40;99.90;;;;;;5044144;28;20936;-75
2022/03/11 02:44:10;;;;;;;17.90;14.83;;;2.40;99.90;;;;;;5046841;28;20504;-76
2022/03/11 02:46:36;;;;;;;17.83;13.57;;;2.30;99.90;;;;;;5032261;28;20489;-76
2022/03/11 02:49:03;;;;;;;16.77;12.77;;;2.20;99.90;;;;;;5050375;28;20449;-76
2022/03/11 02:51:30;;;;;;;16.80;13.60;;;2.10;99.90;;;;;;5049942;28;20431;-75
2022/03/11 02:53:58;;;;;;;18.20;14.00;;;2.00;99.90;;;;;;5031801;28;20473;-76
2022/03/11 02:56:25;;;;;;;17.47;14.47;;;1.90;99.90;;;;;;5052386;28;20482;-76
2022/03/11 02:58:53;;;;;;;18.43;14.20;;;1.80;99.90;;;;;;5049539;28;20443;-76
2022/03/11 03:01:20;;;;;;;18.40;14.17;;;1.70;99.90;;;;;;5053439;28;20434;-76
2022/03/11 03:03:47;;;;;;;17.27;14.40;;;1.60;99.90;;;;;;5048730;28;20991;-76
2022/03/11 03:06:18;;;;;;;18.30;14.27;;;1.60;99.90;;;;;;5028721;28;20971;-75
2022/03/11 03:08:45;;;;;;;18.03;14.80;;;1.60;99.90;;;;;;5027903;28;20865;-76
2022/03/11 03:11:11;;;;;;;18.27;14.37;;;1.60;99.90;;;;;;5032641;28;20468;-76
2022/03/11 03:13:38;;;;;;;19.07;15.97;;;1.60;99.90;;;;;;5049587;28;20453;-75
2022/03/11 03:16:07;;;;;;;16.13;14.30;;;1.50;99.90;;;;;;5025606;28;20487;-76
2022/03/11 03:18:33;;;;;;;18.13;15.13;;;1.40;99.90;;;;;;5050188;28;20487;-76
2022/03/11 03:21:00;;;;;;;17.70;15.53;;;1.30;99.90;;;;;;5050499;28;20438;-75
2022/03/11 03:23:27;;;;;;;17.67;14.83;;;1.30;99.90;;;;;;5023918;28;20453;-75
2022/03/11 03:25:55;;;;;;;17.03;15.07;;;1.30;99.90;;;;;;5047101;28;20490;-76
2022/03/11 03:28:22;;;;;;;20.67;17.50;;;1.20;99.90;;;;;;5045498;28;20948;-75
2022/03/11 03:30:49;;;;;;;20.77;15.00;;;1.20;99.90;;;;;;5029871;28;20453;-76
2022/03/11 03:33:19;;;;;;;19.37;15.17;;;1.20;99.90;;;;;;5049388;28;20466;-77
2022/03/11 03:35:46;;;;;;;19.07;15.87;;;1.20;99.90;;;;;;5051447;28;20478;-74
2022/03/11 03:38:13;;;;;;;20.27;16.67;;;1.10;99.90;;;;;;5051523;28;20465;-75
2022/03/11 03:40:40;;;;;;;22.53;16.60;;;1.10;99.90;;;;;;5046868;28;20945;-77
2022/03/11 03:43:07;;;;;;;19.90;16.00;;;1.10;99.90;;;;;;5036819;28;20483;-76
2022/03/11 03:45:34;;;;;;;18.17;15.17;;;1.10;99.90;;;;;;5023029;28;21024;-76
2022/03/11 03:48:00;;;;;;;19.43;16.63;;;1.10;99.90;;;;;;5035040;28;20447;-76
2022/03/11 03:50:29;;;;;;;21.17;16.43;;;1.00;99.90;;;;;;5012646;28;20463;-76
2022/03/11 03:52:56;;;;;;;20.43;15.93;;;1.10;99.90;;;;;;5015421;28;20472;-76
2022/03/11 03:55:23;;;;;;;18.70;15.37;;;1.00;99.90;;;;;;5018259;28;20493;-76
2022/03/11 03:57:50;;;;;;;19.23;15.10;;;0.90;99.90;;;;;;5048257;28;20430;-76
2022/03/11 04:00:18;;;;;;;20.07;15.03;;;0.90;99.90;;;;;;5047560;28;20436;-76
2022/03/11 04:02:46;;;;;;;18.37;15.17;;;0.90;99.90;;;;;;5030111;28;20439;-75
2022/03/11 04:05:13;;;;;;;20.87;15.97;;;0.90;99.90;;;;;;5015038;28;20475;-76
2022/03/11 04:07:42;;;;;;;19.90;15.80;;;0.80;99.90;;;;;;5030097;28;20446;-76
2022/03/11 04:10:10;;;;;;;21.73;16.27;;;0.80;99.90;;;;;;5015254;28;20463;-75
2022/03/11 04:12:37;;;;;;;20.17;16.07;;;0.80;99.90;;;;;;5015484;28;20458;-77
2022/03/11 04:15:04;;;;;;;21.20;17.03;;;0.80;99.90;;;;;;5045309;23;20487;-80
2022/03/11 04:17:31;;;;;;;20.87;16.90;;;0.70;99.90;;;;;;5051118;28;20451;-78
2022/03/11 04:19:59;;;;;;;20.63;17.93;;;0.70;99.90;;;;;;5033741;28;20447;-77
2022/03/11 04:22:26;;;;;;;24.50;17.50;;;0.60;99.90;;;;;;5032359;28;20461;-77
2022/03/11 04:24:54;;;;;;;22.87;16.60;;;0.60;99.90;;;;;;5042153;28;20462;-78
2022/03/11 04:27:22;;;;;;;19.37;16.00;;;0.50;99.90;;;;;;5051600;28;20815;-78
2022/03/11 04:29:49;;;;;;;22.10;18.07;;;0.50;99.90;;;;;;5040413;28;20897;-77
2022/03/11 04:32:19;;;;;;;22.13;18.27;;;0.40;99.90;;;;;;5052314;28;20429;-78
2022/03/11 04:34:48;;;;;;;18.60;16.20;;;0.40;99.90;;;;;;5051349;28;20450;-78
2022/03/11 04:37:15;;;;;;;23.27;17.93;;;0.40;99.90;;;;;;5044667;28;20442;-78
2022/03/11 04:39:41;;;;;;;22.30;17.17;;;0.40;99.90;;;;;;5052023;28;20867;-78
2022/03/11 04:42:10;;;;;;;19.83;17.07;;;0.30;99.90;;;;;;5051881;28;20461;-77
2022/03/11 04:44:37;;;;;;;19.50;16.33;;;0.30;99.90;;;;;;5053279;28;20454;-77
2022/03/11 04:47:05;;;;;;;20.43;16.83;;;0.30;99.90;;;;;;5051801;28;20434;-78
2022/03/11 04:49:32;;;;;;;19.93;16.53;;;0.30;99.90;;;;;;5053499;28;20432;-77
2022/03/11 04:51:58;;;;;;;23.00;16.57;;;0.20;99.90;;;;;;5051011;28;20869;-78
2022/03/11 04:54:25;;;;;;;22.37;18.00;;;0.20;99.90;;;;;;5050454;28;20462;-77
2022/03/11 04:56:52;;;;;;;20.00;16.23;;;0.20;99.90;;;;;;5039675;28;20473;-77
2022/03/11 04:59:20;;;;;;;20.37;15.80;;;0.20;99.90;;;;;;5052169;28;20541;-77
2022/03/11 05:01:47;;;;;;;19.90;15.90;;;0.20;99.90;;;;;;5052159;28;20827;-78
2022/03/11 05:04:14;;;;;;;22.30;16.87;;;0.20;99.90;;;;;;5052802;28;20458;-77
2022/03/11 05:06:41;;;;;;;21.53;17.53;;;0.10;99.90;;;;;;5047112;28;20454;-77
2022/03/11 05:09:08;;;;;;;20.60;17.27;;;0.10;99.90;;;;;;5052156;28;20871;-77
2022/03/11 05:11:35;;;;;;;21.30;17.17;;;0.10;99.90;;;;;;5052205;28;20457;-77
2022/03/11 05:14:02;;;;;;;23.50;17.13;;;0.10;99.90;;;;;;5051994;28;20446;-77
2022/03/11 05:16:30;;;;;;;21.27;17.10;;;0.00;99.90;;;;;;5066052;28;20462;-78
2022/03/11 05:18:57;;;;;;;18.90;16.03;;;0.00;99.90;;;;;;5066920;28;20909;-77
2022/03/11 05:21:23;;;;;;;20.57;16.50;;;0.00;99.90;;;;;;5050937;28;20504;-77
2022/03/11 05:23:50;;;;;;;23.83;16.00;;;0.00;99.90;;;;;;5051606;28;20437;-77
2022/03/11 05:26:26;;;;;;;18.10;16.03;;;0.00;99.90;;;;;;5047917;28;20449;-78
2022/03/11 05:28:54;;;;;;;24.60;16.77;;;0.00;99.90;;;;;;5050794;28;20862;-77
2022/03/11 05:31:21;;;;;;;19.70;16.37;;;0.00;99.90;;;;;;5044215;28;20446;-78
2022/03/11 05:33:50;;;;;;;19.63;16.47;;;0.00;99.90;;;;;;5052812;28;20836;-77
2022/03/11 05:36:17;;;;;;;21.37;17.23;;;0.10;99.90;;;;;;5050765;28;20474;-77
2022/03/11 05:38:45;;;;;;;22.00;17.13;;;0.10;99.90;;;;;;5051687;28;20441;-78
2022/03/11 05:41:12;;;;;;;20.37;16.90;;;0.10;99.90;;;;;;5052187;28;20450;-78
2022/03/11 05:43:39;;;;;;;25.07;18.03;;;0.10;99.90;;;;;;5044214;28;20776;-77
2022/03/11 05:46:06;;;;;;;25.53;18.13;;;0.00;99.90;;;;;;5050796;28;20497;-77
2022/03/11 05:48:33;;;;;;;20.60;17.17;;;0.00;99.90;;;;;;5047826;28;20435;-77
2022/03/11 05:51:01;;;;;;;24.63;19.57;;;0.00;99.90;;;;;;5051461;28;20868;-77
2022/03/11 05:53:28;;;;;;;21.57;17.37;;;0.00;99.90;;;;;;5052220;28;20507;-77
2022/03/11 05:55:55;;;;;;;24.20;18.13;;;-0.10;99.90;;;;;;5048670;28;20872;-77
2022/03/11 05:58:22;;;;;;;30.03;18.10;;;-0.10;99.90;;;;;;5048914;28;20540;-77
2022/03/11 06:00:49;;;;;;;21.27;18.07;;;-0.10;99.90;;;;;;5048056;28;20916;-77
2022/03/11 06:03:17;;;;;;;25.47;18.67;;;-0.10;99.90;;;;;;5050857;28;20437;-77
2022/03/11 06:05:44;;;;;;;26.50;20.43;;;0.00;99.90;;;;;;5052350;28;20461;-78
2022/03/11 06:08:13;;;;;;;28.50;20.10;;;0.00;99.90;;;;;;5050468;28;20450;-77
2022/03/11 06:10:40;;;;;;;25.60;18.33;;;0.00;99.90;;;;;;5046542;28;21034;-77
2022/03/11 06:13:07;;;;;;;24.93;18.93;;;0.00;99.90;;;;;;5049134;28;20434;-77
2022/03/11 06:15:33;;;;;;;27.40;18.00;;;0.00;99.90;;;;;;5049528;28;20481;-78
2022/03/11 06:18:00;;;;;;;25.87;18.57;;;0.00;99.90;;;;;;5053096;28;20438;-77
2022/03/11 06:20:29;;;;;;;29.47;19.73;;;0.00;99.90;;;;;;5045993;28;20525;-77
2022/03/11 06:22:56;;;;;;;24.17;18.97;;;0.10;99.90;;;;;;5056185;28;20930;-77
2022/03/11 06:25:25;;;;;;;32.27;20.00;;;0.20;99.90;;;;;;5054484;28;20458;-77
2022/03/11 06:27:51;;;;;;;28.20;20.37;;;0.50;99.90;;;;;;5054734;28;20430;-77
2022/03/11 06:30:18;;;;;;;30.03;20.40;;;0.90;99.90;;;;;;5056598;28;20511;-78
2022/03/11 06:32:51;;;;;;;26.57;20.37;;;1.10;99.90;;;;;;5050299;28;20501;-77
2022/03/11 06:35:19;;;;;;;28.03;18.40;;;1.50;99.90;;;;;;5052655;28;20837;-78
2022/03/11 06:37:47;;;;;;;23.40;19.03;;;1.80;99.90;;;;;;5052052;28;20441;-78
2022/03/11 06:40:15;;;;;;;20.20;17.93;;;2.10;99.90;;;;;;5054884;28;20439;-78
2022/03/11 06:42:45;;;;;;;22.33;17.67;;;2.40;99.90;;;;;;5056585;28;20491;-78
2022/03/11 06:45:14;;;;;;;23.00;18.67;;;2.60;99.90;;;;;;5057041;28;20493;-78
2022/03/11 06:47:41;;;;;;;25.70;18.47;;;2.70;99.90;;;;;;5055913;28;20821;-78
2022/03/11 06:50:09;;;;;;;24.60;18.37;;;2.70;99.90;;;;;;5056766;28;20467;-77
2022/03/11 06:52:37;;;;;;;24.40;18.03;;;2.80;99.90;;;;;;5049069;28;20441;-77
2022/03/11 06:55:05;;;;;;;23.70;18.10;;;2.90;99.90;;;;;;5058477;28;20473;-78
2022/03/11 06:57:32;;;;;;;21.83;18.13;;;3.20;99.90;;;;;;5053501;28;21003;-78
2022/03/11 07:00:01;;;;;;;21.40;18.03;;;3.30;99.90;;;;;;5049856;28;20442;-78
2022/03/11 07:02:28;;;;;;;22.13;18.03;;;3.40;99.90;;;;;;5051906;28;20489;-78
2022/03/11 07:04:55;;;;;;;22.20;17.37;;;3.50;99.90;;;;;;5057661;28;20226;-79
2022/03/11 07:07:22;;;;;;;22.73;17.87;;;3.80;99.90;;;;;;5054128;28;20854;-78
2022/03/11 07:09:50;;;;;;;26.37;18.63;;;3.90;99.90;;;;;;5051479;28;20457;-79
2022/03/11 07:12:17;;;;;;;23.03;18.97;;;4.00;99.90;;;;;;5047721;28;20210;-79
2022/03/11 07:14:43;;;;;;;23.07;17.70;;;4.10;99.90;;;;;;5054329;28;20238;-80
2022/03/11 07:17:12;;;;;;;23.43;18.77;;;4.10;99.90;;;;;;5059351;28;20222;-79
2022/03/11 07:19:39;;;;;;;23.87;17.67;;;4.20;99.90;;;;;;5054930;28;20191;-77
2022/03/11 07:22:06;;;;;;;24.80;16.93;;;4.40;99.90;;;;;;5054075;28;20195;-77
2022/03/11 07:24:34;;;;;;;24.80;17.93;;;4.60;99.90;;;;;;5042725;28;20283;-77
2022/03/11 07:27:01;;;;;;;25.07;17.73;;;4.90;99.90;;;;;;5049600;28;20188;-77
2022/03/11 07:29:28;;;;;;;22.60;17.37;;;5.40;99.90;;;;;;5044274;28;20208;-76
2022/03/11 07:31:55;;;;;;;24.17;16.63;;;5.60;99.90;;;;;;5048751;28;20191;-77
2022/03/11 07:34:23;;;;;;;21.03;15.00;;;6.10;99.90;;;;;;5046098;28;20748;-77
2022/03/11 07:36:51;;;;;;;19.63;14.87;;;6.30;99.90;;;;;;5053976;28;20216;-76
2022/03/11 07:39:17;;;;;;;21.37;15.30;;;6.20;99.90;;;;;;5055522;28;20196;-77
2022/03/11 07:41:44;;;;;;;20.60;14.30;;;6.30;99.90;;;;;;5054157;28;20274;-77
2022/03/11 07:44:12;;;;;;;19.10;13.90;;;6.40;99.90;;;;;;5053997;28;20202;-76
2022/03/11 07:46:39;;;;;;;22.43;17.73;;;6.60;99.90;;;;;;5052685;28;20642;-77
2022/03/11 07:49:07;;;;;;;21.43;17.53;;;6.50;99.90;;;;;;5052951;28;20210;-77
2022/03/11 07:51:35;;;;;;;20.80;16.23;;;6.70;99.90;;;;;;5053619;28;20202;-76
2022/03/11 07:54:02;;;;;;;20.47;17.33;;;7.20;99.90;;;;;;5055102;28;20198;-76
2022/03/11 07:56:29;;;;;;;22.47;16.23;;;7.60;99.90;;;;;;5050789;28;20207;-76
2022/03/11 07:58:57;;;;;;;22.37;16.60;;;7.90;99.90;;;;;;5042439;28;20208;-77
2022/03/11 08:01:24;;;;;;;20.50;12.77;;;8.20;99.90;;;;;;5054088;28;20195;-77
2022/03/11 08:03:51;;;;;;;23.17;15.63;;;8.70;99.50;;;;;;5054788;28;20196;-77
2022/03/11 08:06:18;;;;;;;17.40;13.23;;;8.70;98.10;;;;;;5054793;28;20237;-76
2022/03/11 08:08:46;;;;;;;18.53;13.00;;;9.00;98.50;;;;;;5043767;28;20265;-77
2022/03/11 08:11:14;;;;;;;18.97;14.43;;;9.10;97.10;;;;;;5055738;28;20198;-77
2022/03/11 08:13:42;;;;;;;21.93;15.13;;;9.30;96.90;;;;;;5055196;28;20192;-77
2022/03/11 08:16:09;;;;;;;20.20;15.30;;;9.30;97.20;;;;;;5046028;28;20215;-76
2022/03/11 08:18:36;;;;;;;19.80;15.40;;;9.50;97.10;;;;;;5060151;28;20558;-77
2022/03/11 08:21:04;;;;;;;18.47;14.23;;;9.70;95.80;;;;;;5054968;28;20624;-77
2022/03/11 08:23:31;;;;;;;18.73;14.20;;;9.80;95.80;;;;;;5055047;28;20227;-77
2022/03/11 08:25:59;;;;;;;17.20;13.57;;;9.80;95.60;;;;;;5055254;28;20219;-77
2022/03/11 08:28:26;;;;;;;19.87;12.97;;;10.20;95.40;;;;;;5056083;28;20265;-76
2022/03/11 08:30:54;;;;;;;15.37;12.80;;;10.00;95.10;;;;;;5046894;28;20303;-77
2022/03/11 08:33:23;;;;;;;16.07;11.60;;;10.40;95.00;;;;;;5053279;28;20211;-77
2022/03/11 08:35:52;;;;;;;15.43;12.53;;;10.50;95.10;;;;;;5053456;28;20212;-77
2022/03/11 08:38:19;;;;;;;14.83;12.50;;;10.40;94.10;;;;;;5054235;28;20286;-77
2022/03/11 08:40:46;;;;;;;18.30;13.03;;;10.30;94.30;;;;;;5051565;28;20703;-76
2022/03/11 08:43:15;;;;;;;18.73;12.87;;;10.50;93.90;;;;;;5045717;28;20208;-78
2022/03/11 08:45:42;;;;;;;16.97;12.80;;;10.70;93.80;;;;;;5047265;28;20209;-77
2022/03/11 08:48:10;;;;;;;15.93;13.37;;;10.90;93.60;;;;;;5056305;28;20292;-77
2022/03/11 08:50:37;;;;;;;16.40;13.23;;;10.70;93.10;;;;;;5052756;28;20201;-77
2022/03/11 08:53:04;;;;;;;21.43;14.23;;;10.70;93.20;;;;;;5047860;28;20205;-77
2022/03/11 08:55:31;;;;;;;17.03;12.57;;;10.70;93.30;;;;;;5054104;28;20231;-78
2022/03/11 08:57:57;;;;;;;17.97;13.70;;;10.90;93.00;;;;;;5054785;28;20238;-77
2022/03/11 09:00:26;;;;;;;17.60;13.50;;;10.90;92.90;;;;;;5052064;28;20200;-77
2022/03/11 09:02:53;;;;;;;17.23;13.13;;;10.80;93.40;;;;;;5045411;28;20231;-77
2022/03/11 09:05:20;;;;;;;17.53;12.93;;;11.00;93.00;;;;;;5053190;28;20641;-78
2022/03/11 09:07:49;;;;;;;15.30;11.60;;;11.00;92.90;;;;;;5052053;28;20219;-77
2022/03/11 09:10:18;;;;;;;16.77;12.47;;;11.10;92.90;;;;;;5054453;28;20192;-77
2022/03/11 09:12:46;;;;;;;17.60;12.13;;;11.50;93.20;;;;;;5053163;28;20285;-77
2022/03/11 09:15:14;;;;;;;18.70;13.27;;;11.60;92.10;;;;;;5053485;28;20304;-77
2022/03/11 09:17:44;;;;;;;16.30;12.67;;;11.40;92.20;;;;;;5039459;28;20221;-77
2022/03/11 09:20:12;;;;;;;13.97;11.20;;;11.40;92.10;;;;;;5047663;28;20267;-77
2022/03/11 09:22:40;;;;;;;16.40;11.80;;;11.40;91.90;;;;;;5043740;28;20685;-77
2022/03/11 09:25:08;;;;;;;13.77;11.00;;;11.30;92.60;;;;;;5052819;28;20291;-77
2022/03/11 09:27:36;;;;;;;17.57;12.47;;;11.60;92.70;;;;;;5051059;28;20696;-77
2022/03/11 09:30:03;;;;;;;14.27;10.77;;;11.90;92.50;;;;;;5051910;28;20224;-78
2022/03/11 09:32:30;;;;;;;14.97;11.37;;;11.80;91.30;;;;;;5052318;28;20212;-77
2022/03/11 09:34:59;;;;;;;14.23;11.33;;;11.70;92.00;;;;;;5043831;28;20700;-77
2022/03/11 09:37:26;;;;;;;15.33;11.10;;;11.70;92.80;;;;;;5042666;28;20206;-78
2022/03/11 09:39:53;;;;;;;17.50;10.93;;;12.00;92.20;;;;;;5046332;28;20199;-77
2022/03/11 09:42:20;;;;;;;13.53;10.33;;;12.00;91.60;;;;;;5049744;28;20227;-77
2022/03/11 09:44:53;;;;;;;15.60;11.30;;;12.20;91.70;;;;;;5046995;28;20224;-77
2022/03/11 09:47:21;;;;;;;13.13;10.30;;;12.10;91.20;;;;;;5050331;28;20237;-78
2022/03/11 09:49:50;;;;;;;17.47;11.27;;;12.20;90.50;;;;;;5051281;28;20229;-78
2022/03/11 09:52:19;;;;;;;13.67;11.20;;;11.80;91.70;;;;;;5051392;28;20209;-77
2022/03/11 09:54:46;;;;;;;13.07;11.17;;;11.60;91.50;;;;;;5051584;28;20315;-78
2022/03/11 09:57:17;;;;;;;14.97;11.40;;;11.80;91.80;;;;;;5037858;28;20621;-78
2022/03/11 09:59:44;;;;;;;13.83;11.10;;;11.80;91.70;;;;;;5047337;28;20206;-78
2022/03/11 10:02:13;;;;;;;14.70;11.20;;;11.90;91.80;;;;;;5053529;28;20739;-78
2022/03/11 10:04:48;;;;;;;18.20;12.10;;;12.20;91.40;;;;;;5053240;28;20312;-78
2022/03/11 10:07:27;;;;;;;13.87;10.97;;;12.10;91.10;;;;;;5051684;28;20241;-77
2022/03/11 10:09:55;;;;;;;17.27;10.80;;;11.80;90.70;;;;;;5039667;28;20190;-77
2022/03/11 10:12:25;;;;;;;17.30;11.40;;;11.60;91.30;;;;;;5044118;28;20746;-78
2022/03/11 10:14:57;;;;;;;17.43;11.00;;;11.40;90.90;;;;;;5072417;22;20220;-78
2022/03/11 10:17:25;;;;;;;14.00;11.50;;;11.40;91.00;;;;;;5071783;28;20201;-80
2022/03/11 10:19:59;;;;;;;15.07;11.27;;;11.30;91.80;;;;;;5069984;28;20646;-77
2022/03/11 10:22:28;;;;;;;13.50;10.80;;;11.50;91.70;;;;;;5069112;28;20195;-77
2022/03/11 10:24:55;;;;;;;14.27;11.37;;;11.40;91.60;;;;;;5072166;28;20243;-78
2022/03/11 10:27:23;;;;;;;15.47;10.03;;;11.30;92.20;;;;;;5061079;28;20604;-78
2022/03/11 10:29:51;;;;;;;18.13;9.67;;;11.10;91.50;;;;;;5062614;28;20688;-78
2022/03/11 10:32:24;;;;;;;13.53;9.30;;;10.90;91.70;;;;;;5064834;28;20202;-78
2022/03/11 10:34:51;;;;;;;12.93;9.53;;;10.80;91.80;;;;;;5064248;28;20273;-78
2022/03/11 10:37:19;;;;;;;14.27;9.63;;;10.80;91.40;;;;;;5059558;28;20193;-77
2022/03/11 10:39:48;;;;;;;12.47;10.20;;;10.70;91.80;;;;;;5060307;28;20289;-77
2022/03/11 10:42:17;;;;;;;16.93;11.20;;;10.70;92.10;;;;;;5061221;28;20197;-76
2022/03/11 10:44:56;;;;;;;14.47;10.07;;;10.60;91.60;;;;;;5060107;28;20712;-77
2022/03/11 10:47:24;;;;;;;11.07;9.03;;;10.60;92.00;;;;;;5059691;28;20630;-77
2022/03/11 10:49:52;;;;;;;12.63;9.27;;;10.60;92.40;;;;;;5058725;28;20208;-76
2022/03/11 10:52:30;;;;;;;12.57;8.07;;;10.50;92.00;;;;;;5062846;28;20218;-78
2022/03/11 10:54:58;;;;;;;15.07;8.97;;;10.60;92.20;;;;;;5060620;28;20220;-78
2022/03/11 10:57:35;;;;;;;12.80;9.10;;;10.70;92.20;;;;;;5055998;28;20191;-78
2022/03/11 11:00:25;;;;;;;14.00;8.73;;;10.60;92.10;;;;;;5064886;28;20210;-76
2022/03/11 11:02:54;;;;;;;11.37;8.50;;;10.40;91.90;;;;;;5059247;28;20211;-78
2022/03/11 11:05:21;;;;;;;11.47;9.13;;;10.40;92.30;;;;;;5063889;28;20224;-79
2022/03/11 11:07:49;;;;;;;13.83;8.50;;;10.40;92.10;;;;;;5064987;28;20209;-77
2022/03/11 11:10:19;;;;;;;12.70;8.53;;;10.50;92.10;;;;;;5065063;28;20699;-76
2022/03/11 11:12:47;;;;;;;12.37;9.23;;;10.50;92.20;;;;;;5058598;28;20234;-78
2022/03/11 11:15:15;;;;;;;14.80;8.93;;;10.60;91.80;;;;;;5067059;28;20734;-78
2022/03/11 11:17:44;;;;;;;10.90;8.00;;;10.60;92.10;;;;;;5062544;28;20190;-76
2022/03/11 11:20:19;;;;;;;15.00;9.07;;;10.60;92.00;;;;;;5060250;28;20658;-77
2022/03/11 11:22:47;;;;;;;14.27;8.50;;;10.70;91.80;;;;;;5067471;28;20198;-76
2022/03/11 11:25:18;;;;;;;12.23;8.73;;;10.70;92.10;;;;;;5061778;28;20281;-76
2022/03/11 11:27:45;;;;;;;12.23;9.97;;;10.70;92.10;;;;;;5063139;28;20712;-77
2022/03/11 11:30:17;;;;;;;14.00;8.97;;;10.70;91.50;;;;;;5063608;28;20203;-77
2022/03/11 11:32:44;;;;;;;11.77;8.50;;;10.80;91.70;;;;;;5065209;28;20275;-78
2022/03/11 11:35:30;;;;;;;14.13;8.20;;;10.70;91.90;;;;;;5068652;28;20211;-80
2022/03/11 11:37:58;;;;;;;14.07;9.00;;;10.70;91.90;;;;;;5062222;28;20286;-77
2022/03/11 11:40:28;;;;;;;13.77;9.27;;;10.80;92.20;;;;;;5058910;28;20202;-77
2022/03/11 11:43:27;;;;;;;15.80;9.30;;;10.80;91.80;;;;;;5065508;28;20640;-77
2022/03/11 11:45:57;;;;;;;16.70;9.40;;;10.90;92.30;;;;;;5064857;28;20230;-77
2022/03/11 11:49:03;;;;;;;12.10;8.20;;;11.00;91.90;;;;;;5071641;28;20239;-77
2022/03/11 11:51:56;;;;;;;14.80;9.50;;;11.00;92.20;;;;;;5062266;28;20197;-75
2022/03/11 11:54:41;;;;;;;11.63;8.33;;;11.10;91.90;;;;;;5061955;28;20235;-77
2022/03/11 11:57:18;;;;;;;12.47;9.03;;;11.20;92.10;;;;;;5074703;28;20208;-77
2022/03/11 11:59:46;;;;;;;13.30;9.50;;;11.20;91.70;;;;;;5063205;28;20193;-77
2022/03/11 12:02:37;;;;;;;11.37;8.37;;;11.30;91.70;;;;;;5063895;28;20210;-75
2022/03/11 12:05:41;;;;;;;11.90;8.80;;;11.30;91.80;;;;;;5049357;28;20224;-76
2022/03/11 12:08:09;;;;;;;13.43;8.03;;;11.40;92.20;;;;;;5044787;28;20276;-77
2022/03/11 12:10:50;;;;;;;12.73;8.67;;;11.40;91.60;;;;;;5058203;28;20207;-75
2022/03/11 12:13:32;;;;;;;13.77;7.80;;;11.50;91.80;;;;;;5057576;28;20618;-77
2022/03/11 12:15:59;;;;;;;11.97;8.03;;;11.60;91.80;;;;;;5057354;28;20251;-76
2022/03/11 12:18:44;;;;;;;10.57;7.73;;;11.60;91.30;;;;;;5063954;28;20603;-75
2022/03/11 12:21:23;;;;;;;12.87;8.83;;;11.60;91.30;;;;;;5059372;28;20263;-76
2022/03/11 12:23:50;;;;;;;12.57;9.20;;;11.70;91.60;;;;;;5061029;28;20197;-77
2022/03/11 12:26:17;;;;;;;13.60;9.27;;;11.70;91.00;;;;;;5062998;28;20274;-77
2022/03/11 12:28:45;;;;;;;13.50;9.77;;;11.70;91.20;;;;;;5060098;28;20581;-76
2022/03/11 12:31:14;;;;;;;13.03;8.33;;;11.70;91.60;;;;;;5057382;28;20695;-75
2022/03/11 12:33:42;;;;;;;12.17;9.13;;;11.80;91.60;;;;;;5058475;28;20202;-75
2022/03/11 12:36:11;;;;;;;13.70;9.03;;;11.80;91.30;;;;;;5060963;28;20222;-75
2022/03/11 12:38:39;;;;;;;14.13;8.63;;;11.90;91.30;;;;;;5060070;28;20197;-75
2022/03/11 12:41:09;;;;;;;16.97;9.93;;;12.00;91.00;;;;;;5061333;28;20202;-75
2022/03/11 12:43:36;;;;;;;12.80;9.03;;;11.90;91.40;;;;;;5063645;28;20266;-75